Latest Weather Observations for Tunnack

IDT60801

Issued at 6:02 pm EST Friday 30 September 2016 (issued every 30 minutes, with the page automatically refreshed every 10 minutes)

About weather observations | Map of weather stations | Latest weather observations for TAS | Other Formats
Station Details ID: 094195 Name: TUNNACK FIRE STATION Lat: -42.45 Lon: 147.46 Height: 461.5 m
Data from the previous 72 hours. | See also: Recent months at Tunnack
Date/Time
EST
Temp
°C
App
Temp
°C
Dew
Point
°C
Rel
Hum
%
Delta-T
°C
Wind Press
QNH
hPa
Press
MSL
hPa
Rain since
9am
mm
Dir  Spd
km/h
Gust
km/h
Spd
kts
Gust
kts
30/06:00pm 7.3 -0.2 3.4 76 1.7 N 32 48 17 26 990.7 991.0 3.2
30/05:30pm 7.4 -0.3 3.5 76 1.7 N 33 59 18 32 990.3 990.6 3.2
30/05:00pm 8.8 0.3 3.4 69 2.4 N 37 59 20 32 989.4 989.8 3.2
30/04:30pm 9.5 1.1 3.7 67 2.6 N 37 56 20 30 989.0 989.3 3.2
30/04:04pm 10.2 2.6 4.1 66 2.8 NNE 33 52 18 28 988.6 988.9 3.2
30/04:00pm 10.4 2.5 4.3 66 2.8 NNE 35 52 19 28 988.6 988.9 3.2
30/03:30pm 10.1 1.5 4.9 70 2.4 N 39 61 21 33 988.2 988.5 3.2
30/03:16pm 9.9 1.3 4.7 70 2.4 N 39 57 21 31 988.2 988.5 3.2
30/03:00pm 10.5 2.8 5.5 71 2.4 N 35 52 19 28 988.1 988.4 3.2
30/02:34pm 10.4 4.0 5.4 71 2.3 N 28 46 15 25 988.1 988.4 3.2
30/02:30pm 10.9 5.2 6.6 75 2.1 N 26 44 14 24 988.1 988.4 3.2
30/02:25pm 10.5 3.7 6.8 78 1.8 N 32 50 17 27 988.0 988.3 3.2
30/02:00pm 9.9 2.1 6.6 80 1.6 N 37 48 20 26 987.3 987.5 3.2
30/01:30pm 9.6 1.5 7.0 84 1.3 N 39 57 21 31 986.9 987.2 3.2
30/01:01pm 8.1 -0.3 7.2 94 0.4 N 41 59 22 32 986.8 987.1 3.2
30/01:00pm 8.0 -0.9 6.8 92 0.6 N 43 59 23 32 986.9 987.2 3.2
30/12:46pm 8.0 0.7 7.2 95 0.4 N 35 56 19 30 986.8 987.1 3.2
30/12:30pm 8.0 0.7 7.2 95 0.4 N 35 48 19 26 986.8 987.1 2.8
30/12:00pm 8.3 1.5 7.7 96 0.3 N 33 46 18 25 986.6 986.9 2.6
30/11:30am 8.7 4.5 8.1 96 0.3 N 20 33 11 18 986.3 986.6 2.6
30/11:00am 8.2 3.5 7.6 96 0.3 N 22 32 12 17 986.8 987.1 1.6
30/10:30am 10.7 6.6 10.1 96 0.3 E 22 35 12 19 986.8 987.1 0.4
30/10:04am 10.8 4.8 10.2 96 0.3 ESE 32 50 17 27 986.9 987.2 0.2
30/10:00am 10.6 3.6 10.0 96 0.3 ESE 37 52 20 28 986.9 987.2 0.2
30/09:33am 10.5 2.1 9.7 95 0.4 ESE 44 61 24 33 987.4 987.6 0.2
30/09:30am 10.4 2.2 9.6 95 0.4 ESE 43 61 23 33 987.4 987.6 0.0
30/09:18am 10.6 5.3 9.8 95 0.4 E 28 46 15 25 987.4 987.6 0.0
30/09:00am 10.6 4.3 9.8 95 0.4 E 33 50 18 27 987.4 987.6 55.0
30/08:30am 10.5 3.0 9.6 94 0.5 ESE 39 63 21 34 987.5 987.7 54.8
30/08:14am 10.3 2.8 9.5 95 0.4 ESE 39 59 21 32 987.6 987.9 54.0
30/08:08am 10.1 5.1 9.6 97 0.3 SE 26 59 14 32 987.7 988.0 53.8
30/08:00am 9.3 5.8 8.8 97 0.3 SSE 17 28 9 15 987.8 988.1 52.6
30/07:30am 8.8 5.2 8.4 97 0.2 S 17 35 9 19 988.2 988.5 48.6
30/07:00am 9.3 4.1 8.7 96 0.3 SE 26 41 14 22 989.3 989.6 45.6
30/06:32am 9.6 2.2 8.2 91 0.7 ESE 37 56 20 30 989.6 989.9 41.8
30/06:30am 9.6 2.9 8.0 90 0.8 ESE 33 50 18 27 989.6 989.9 41.8
30/06:26am 9.5 3.7 8.1 91 0.7 ESE 28 50 15 27 989.6 989.9 41.4
30/06:00am 9.4 5.8 8.2 92 0.6 SE 17 24 9 13 989.6 989.9 39.4
30/05:30am 9.5 4.2 8.3 92 0.6 ESE 26 39 14 21 989.9 990.2 38.2
30/05:00am 9.7 4.0 8.3 91 0.7 ESE 28 39 15 21 990.0 990.3 36.8
30/04:30am 9.5 5.6 8.6 94 0.5 SE 19 30 10 16 990.0 990.3 35.2
30/04:00am 9.3 6.8 8.2 93 0.6 SE 11 15 6 8 990.2 990.5 32.6
30/03:30am 9.4 6.5 8.3 93 0.5 E 13 20 7 11 990.6 990.9 31.4
30/03:00am 9.7 5.8 8.8 94 0.5 E 19 26 10 14 990.9 991.2 31.2
30/02:30am 9.6 5.5 8.7 94 0.5 ENE 20 35 11 19 991.1 991.4 30.4
30/02:00am 9.3 4.8 8.7 96 0.3 E 22 33 12 18 991.3 991.7 30.4
30/01:30am 8.8 5.6 8.4 97 0.2 ENE 15 22 8 12 992.0 992.3 30.4
30/01:00am 8.9 5.3 8.3 96 0.3 ENE 17 26 9 14 992.6 992.9 29.2
30/12:30am 9.3 5.2 8.5 95 0.4 E 20 26 11 14 992.4 992.7 27.6
30/12:00am 9.1 5.8 8.0 93 0.5 E 15 26 8 14 992.4 992.7 25.6
 
Date/Time
EST
Temp
°C
App
Temp
°C
Dew
Point
°C
Rel
Hum
%
Delta-T
°C
Wind Press
QNH
hPa
Press
MSL
hPa
Rain since
9am
mm
Dir  Spd
km/h
Gust
km/h
Spd
kts
Gust
kts
29/11:30pm 8.9 5.7 8.5 97 0.2 E 15 20 8 11 992.6 992.9 25.4
29/11:00pm 9.0 6.6 8.6 97 0.2 NE 11 20 6 11 992.8 993.1 25.4
29/10:30pm 9.0 5.8 8.4 96 0.3 NE 15 24 8 13 992.9 993.2 25.4
29/10:00pm 9.0 4.8 8.4 96 0.3 NE 20 28 11 15 992.7 993.0 24.4
29/09:39pm 9.5 3.1 8.6 94 0.5 ENE 32 61 17 33 992.9 993.2 17.8
29/09:30pm 9.8 2.2 8.9 94 0.5 ENE 39 69 21 37 992.8 993.1 15.6
29/09:00pm 9.8 2.9 9.0 95 0.4 ENE 35 63 19 34 992.9 993.2 13.6
29/08:30pm 9.8 3.0 9.2 96 0.3 ENE 35 57 19 31 992.7 993.0 12.6
29/08:00pm 9.7 0.6 8.6 93 0.6 E 46 74 25 40 992.1 992.4 11.4
29/07:30pm 9.6 1.1 8.4 92 0.6 E 43 72 23 39 992.1 992.4 10.8
29/07:00pm 9.7 0.9 8.0 89 0.8 E 44 65 24 35 992.0 992.3 10.6
29/06:47pm 9.5 0.3 8.1 91 0.7 E 46 69 25 37 991.5 991.9 10.4
29/06:30pm 9.8 -1.5 7.9 88 0.9 E 57 87 31 47 991.3 991.7 10.4
29/06:09pm 9.7 0.5 8.1 90 0.8 E 46 74 25 40 991.7 992.1 10.2
29/06:07pm 9.8 0.6 8.1 89 0.8 E 46 74 25 40 991.9 992.2 10.2
29/06:00pm 9.7 1.8 8.0 89 0.8 E 39 67 21 36 992.0 992.3 9.8
29/05:30pm 9.8 0.6 8.2 90 0.8 ENE 46 67 25 36 992.3 992.6 9.2
29/05:00pm 10.1 3.2 8.9 92 0.6 ENE 35 61 19 33 992.5 992.8 9.2
29/04:30pm 10.3 3.2 9.4 94 0.5 ENE 37 61 20 33 992.5 992.8 8.8
29/04:00pm 10.4 4.3 9.6 95 0.4 ENE 32 52 17 28 992.5 992.8 8.6
29/03:30pm 10.4 3.6 9.3 93 0.6 ENE 35 54 19 29 992.5 992.8 8.4
29/03:09pm 10.5 4.2 9.7 95 0.4 ENE 33 56 18 30 992.6 992.9 8.0
29/03:00pm 10.5 3.8 9.7 95 0.4 ENE 35 50 19 27 992.8 993.1 7.8
29/02:30pm 10.5 4.4 9.7 95 0.4 ENE 32 50 17 27 992.7 993.0 6.8
29/02:00pm 10.5 4.4 9.7 95 0.4 ENE 32 56 17 30 993.0 993.3 6.6
29/01:32pm 10.5 4.8 9.7 95 0.4 ENE 30 48 16 26 993.3 993.7 6.2
29/01:30pm 10.5 4.8 9.7 95 0.4 ENE 30 43 16 23 993.4 993.8 6.2
29/01:00pm 10.5 4.4 9.7 95 0.4 ENE 32 50 17 27 993.7 994.1 5.6
29/12:30pm 10.5 4.2 9.6 94 0.5 ENE 33 52 18 28 994.1 994.4 4.4
29/12:00pm 10.7 5.0 9.8 94 0.5 ENE 30 50 16 27 994.6 994.9 3.8
29/11:48am 10.7 5.4 9.8 94 0.5 ENE 28 46 15 25 994.9 995.3 3.8
29/11:30am 10.8 5.5 9.9 94 0.5 ENE 28 44 15 24 995.1 995.5 3.0
29/11:00am 10.8 6.6 9.7 93 0.6 ENE 22 39 12 21 995.5 995.9 2.0
29/10:30am 11.2 7.1 10.0 92 0.6 ENE 22 41 12 22 995.7 996.1 1.2
29/10:00am 11.3 6.7 9.7 90 0.8 NE 24 37 13 20 996.1 996.5 0.4
29/09:30am 11.1 6.6 8.7 85 1.2 ENE 22 41 12 22 996.5 996.8 0.0
29/09:00am 11.5 6.9 8.0 79 1.8 NE 22 46 12 25 996.8 997.2 0.2
29/08:30am 10.6 6.6 8.2 85 1.2 ENE 19 32 10 17 997.4 997.8 0.2
29/08:00am 10.3 6.1 8.2 87 1.1 NE 20 33 11 18 997.5 997.9 0.2
29/07:30am 9.9 6.3 8.5 91 0.7 ENE 17 30 9 16 997.8 998.2 0.0
29/07:00am 9.7 5.7 8.1 90 0.8 ENE 19 32 10 17 998.0 998.4 0.0
29/06:30am 9.2 4.9 7.8 91 0.7 ENE 20 33 11 18 998.3 998.7 0.0
29/06:00am 8.8 5.3 7.1 89 0.8 ENE 15 22 8 12 998.9 999.3 0.0
29/05:30am 8.4 4.5 7.2 92 0.6 ENE 17 28 9 15 999.0 999.4 0.0
29/05:00am 8.3 4.7 6.9 91 0.7 NE 15 26 8 14 999.4 999.8 0.0
29/04:30am 7.9 4.6 6.2 89 0.8 ENE 13 20 7 11 999.4 999.8 0.0
29/04:00am 7.5 3.6 5.3 86 1.0 ENE 15 20 8 11 1000.0 1000.4 0.0
29/03:30am 7.4 3.4 4.9 84 1.1 NE 15 26 8 14 1000.4 1000.9 0.0
29/03:00am 6.9 2.8 4.2 83 1.2 NE 15 24 8 13 1001.0 1001.4 0.0
29/02:30am 6.2 2.4 4.0 86 1.0 NE 13 20 7 11 1001.4 1001.8 0.0
29/02:00am 6.4 2.7 4.2 86 1.0 ENE 13 22 7 12 1001.9 1002.3 0.0
29/01:30am 5.0 3.3 4.0 93 0.4 NE 2 7 1 4 1002.8 1003.3 0.0
29/01:00am 5.4 3.0 4.1 91 0.6 NE 6 9 3 5 1003.1 1003.6 0.0
29/12:30am 5.4 2.4 3.9 90 0.7 NNE 9 13 5 7 1003.4 1003.8 0.0
29/12:00am 6.5 3.3 5.1 91 0.6 ENE 11 15 6 8 1003.6 1004.0 0.0
 
Date/Time
EST
Temp
°C
App
Temp
°C
Dew
Point
°C
Rel
Hum
%
Delta-T
°C
Wind Press
QNH
hPa
Press
MSL
hPa
Rain since
9am
mm
Dir  Spd
km/h
Gust
km/h
Spd
kts
Gust
kts
28/11:30pm 6.4 2.6 3.9 84 1.1 NNE 13 19 7 10 1004.1 1004.6 0.0
28/11:00pm 7.0 3.6 4.1 82 1.3 NNE 11 17 6 9 1004.3 1004.8 0.0
28/10:30pm 7.7 3.7 4.8 82 1.3 NNE 15 22 8 12 1004.7 1005.2 0.0
28/10:00pm 7.5 3.5 5.1 85 1.1 NNE 15 22 8 12 1004.6 1005.1 0.0
28/09:30pm 7.8 4.5 6.4 91 0.7 NE 13 17 7 9 1004.8 1005.3 0.0
28/09:00pm 8.4 6.0 7.2 92 0.6 NE 9 15 5 8 1005.2 1005.7 0.0
28/08:30pm 8.5 5.5 7.6 94 0.4 NE 13 19 7 10 1005.9 1006.4 0.0
28/08:00pm 8.4 4.9 7.3 93 0.5 ENE 15 20 8 11 1005.8 1006.2 0.0
28/07:30pm 8.5 4.6 7.1 91 0.7 ENE 17 28 9 15 1005.7 1006.1 0.0
28/07:00pm 8.8 5.2 6.6 86 1.1 ENE 15 24 8 13 1005.4 1005.9 0.0
28/06:30pm 8.8 4.8 6.6 86 1.0 ENE 17 26 9 14 1005.0 1005.5 0.0
28/06:00pm 8.9 3.9 6.3 84 1.2 ENE 22 32 12 17 1005.2 1005.7 0.0
28/05:30pm 9.1 4.4 6.0 81 1.5 ENE 20 35 11 19 1005.3 1005.8 0.0
28/05:00pm 9.8 4.7 6.0 77 1.8 ENE 22 33 12 18 1004.9 1005.4 0.0
28/04:30pm 10.2 5.5 6.0 75 2.0 ENE 20 30 11 16 1004.8 1005.3 0.0
28/04:00pm 10.4 4.8 5.4 71 2.4 ENE 24 37 13 20 1004.9 1005.4 0.0
28/03:30pm 10.3 5.4 5.1 70 2.4 ENE 20 32 11 17 1005.3 1005.8 0.0
28/03:00pm 11.3 6.5 5.4 67 2.8 ENE 20 30 11 16 1005.7 1006.1 0.0
28/02:30pm 12.9 9.0 6.9 67 3.0 ENE 17 24 9 13 1006.1 1006.6 0.0
28/02:00pm 13.8 10.0 1.5 43 5.5 ENE 11 19 6 10 1006.4 1006.9 0.0
28/01:30pm 13.5 9.7 4.1 53 4.4 NNE 13 24 7 13 1006.8 1007.3 0.0
28/01:00pm 12.8 8.4 2.9 51 4.5 NE 15 22 8 12 1007.2 1007.7 0.0
28/12:30pm 12.1 8.6 5.5 64 3.1 ENE 13 19 7 10 1007.9 1008.4 0.0
28/12:00pm 11.4 8.4 3.9 60 3.4 E 9 13 5 7 1008.2 1008.7 0.0
28/11:30am 12.6 9.9 5.5 62 3.4 N 9 15 5 8 1008.4 1008.9 0.0
28/11:00am 11.2 8.2 2.2 54 4.0 NNW 7 13 4 7 1008.8 1009.3 0.0
28/10:30am 9.9 5.9 0.8 53 3.8 WNW 11 15 6 8 1009.0 1009.5 0.0
28/10:00am 11.0 7.8 3.1 58 3.5 NW 9 19 5 10 1009.2 1009.7 0.0
28/09:30am 10.3 6.0 3.3 62 3.1 NW 15 22 8 12 1009.4 1009.9 0.0
28/09:00am 9.4 6.0 3.8 68 2.5 NW 11 26 6 14 1009.6 1010.2 0.0
28/08:30am 8.9 5.2 4.3 73 2.1 NW 13 19 7 10 1009.6 1010.2 0.0
28/08:00am 8.8 5.7 5.5 80 1.5 W 11 15 6 8 1009.6 1010.2 0.0
28/07:30am 7.4 4.5 4.4 81 1.3 NW 9 15 5 8 1009.5 1010.1 0.0
28/07:00am 5.4 3.4 4.2 92 0.5 NW 4 7 2 4 1009.5 1010.1 0.0
28/06:30am 4.6 2.0 4.2 97 0.2 NNW 7 9 4 5 1009.3 1009.8 0.0
28/06:00am 2.9 0.0 2.6 98 0.1 E 7 9 4 5 1009.1 1009.6 0.0
28/05:30am 3.0 0.7 2.6 97 0.2 WSW 4 7 2 4 1008.8 1009.3 0.0
28/05:00am 3.5 2.0 3.1 97 0.2 CALM 0 0 0 0 1008.6 1009.1 0.0
28/04:30am 4.4 1.4 4.0 97 0.2 NNE 9 11 5 6 1008.5 1009.0 0.0
28/04:00am 3.8 2.3 3.2 96 0.3 CALM 0 6 0 3 1008.4 1008.9 0.0
28/03:30am 4.9 2.4 4.5 97 0.2 N 7 11 4 6 1008.1 1008.6 0.0
28/03:00am 4.5 2.8 3.9 96 0.3 ENE 2 6 1 3 1007.9 1008.4 0.0
28/02:30am 5.1 2.5 4.4 95 0.3 NW 7 13 4 7 1007.7 1008.3 0.0
28/02:00am 5.8 3.0 5.2 96 0.3 N 9 13 5 7 1007.7 1008.3 0.0
28/01:30am 5.8 3.0 5.1 95 0.3 NNW 9 13 5 7 1007.9 1008.4 0.0
28/01:00am 5.7 2.5 5.1 96 0.3 NNW 11 17 6 9 1007.9 1008.4 0.0
28/12:30am 6.2 2.7 5.6 96 0.3 N 13 17 7 9 1007.9 1008.4 0.0
28/12:00am 6.2 2.7 5.6 96 0.3 N 13 19 7 10 1007.7 1008.3 0.0
 
Date/Time
EST
Temp
°C
App
Temp
°C
Dew
Point
°C
Rel
Hum
%
Delta-T
°C
Wind Press
QNH
hPa
Press
MSL
hPa
Rain since
9am
mm
Dir  Spd
km/h
Gust
km/h
Spd
kts
Gust
kts
27/11:30pm 6.2 2.7 5.5 95 0.3 N 13 17 7 9 1007.9 1008.4 0.0
27/11:00pm 6.0 3.2 5.3 95 0.3 NW 9 11 5 6 1008.1 1008.6 0.0
27/10:30pm 5.9 4.8 4.9 93 0.4 CALM 0 0 0 0 1007.9 1008.4 0.0
27/10:00pm 7.3 5.0 5.8 90 0.7 N 7 9 4 5 1007.7 1008.3 0.0
27/09:30pm 7.9 5.3 6.0 88 0.9 NNW 9 11 5 6 1008.0 1008.5 0.0
27/09:00pm 8.2 4.8 6.0 86 1.0 NW 13 17 7 9 1007.7 1008.3 0.0
27/08:30pm 8.9 5.6 6.3 84 1.2 NNW 13 19 7 10 1007.6 1008.2 0.0
27/08:00pm 9.1 6.1 6.2 82 1.4 N 11 19 6 10 1007.5 1008.0 0.0
27/07:30pm 9.3 6.6 5.5 77 1.8 NE 9 13 5 7 1007.1 1007.6 0.0
27/07:00pm 9.8 5.9 5.2 73 2.1 NE 15 20 8 11 1006.9 1007.4 0.0
27/06:30pm 9.6 7.1 4.8 72 2.2 ENE 7 9 4 5 1006.6 1007.1 0.0

Other Formats:

Comma delimited format used in spreadsheet applications
http://www.bom.gov.au/fwo/IDT60801/IDT60801.94960.axf

JavaScript Object Notation format (JSON) in row-major order
http://www.bom.gov.au/fwo/IDT60801/IDT60801.94960.json